Data for 09/07/2015

Time Sea-Level Adjusted Pressure Absolute Pressure Temperature Relative Humidity Dew Point   
(mb) (inHg) (mb) (inHg) (C) (F) (%) (C) (F)
00:05 1020 30.12 849 25.07 8.5 47.2 35 -6.2 20.9
00:10 1020 30.12 849 25.07 8.4 47.1 35 -6.1 21.1
00:15 1020 30.12 849 25.07 8.5 47.3 35 -6.3 20.7
00:20 1020 30.12 849 25.07 8 46.5 39 -5.2 22.7
00:25 1020 30.12 849 25.07 7.3 45.1 41 -5.2 22.6
00:30 1020 30.12 849 25.07 7.2 45 40 -5.6 22
00:35 1020 30.12 849 25.07 7.1 44.7 39 -6.1 21.1
00:40 1020 30.12 849 25.07 7.1 44.8 39 -5.9 21.4
00:45 1020 30.12 849 25.07 7.2 45 38 -6.3 20.7
00:50 1020 30.12 849 25.07 7.4 45.3 37 -6.3 20.7
00:55 1020 30.12 849 25.07 7.7 45.9 35 -7 19.5
01:00 1020 30.12 849 25.07 7.8 46 36 -6.3 20.7
01:05 1020 30.12 849 25.07 7.8 46 36 -6.5 20.3
01:10 1020 30.12 849 25.07 7.5 45.6 39 -5.5 22.2
01:15 1020 30.12 849 25.07 7.1 44.8 43 -4.5 23.8
01:20 1020 30.12 849 25.07 6.4 43.4 45 -4.7 23.6
01:25 1020 30.12 849 25.07 6.2 43.1 47 -4.3 24.3
01:30 1020 30.12 850 25.1 6 42.7 47 -4.4 24.1
01:35 1020 30.12 850 25.1 6 42.9 48 -4.2 24.4
01:40 1020 30.12 850 25.1 5.4 41.6 56 -2.6 27.3
01:45 1020 30.12 850 25.1 4.7 40.5 57 -3.2 26.3
01:50 1020 30.12 850 25.1 4.6 40.3 56 -3.3 26
01:55 1021 30.15 850 25.1 5 41 52 -4.1 24.6
02:00 1021 30.15 850 25.1 5.8 42.5 44 -5.6 22
02:05 1021 30.15 850 25.1 6.8 44.3 42 -5.1 22.8
02:10 1021 30.15 850 25.1 6.9 44.5 43 -4.6 23.6
02:15 1021 30.15 850 25.1 6.8 44.3 44 -4.7 23.6
02:20 1021 30.15 850 25.1 6.7 44.1 46 -4 24.9
02:25 1021 30.15 850 25.1 6.8 44.2 46 -4 24.8
02:30 1021 30.15 850 25.1 6.8 44.2 48 -3.4 25.8
02:35 1021 30.15 850 25.1 6.8 44.3 49 -3.2 26.3
02:40 1021 30.15 850 25.1 6.2 43.1 52 -3.1 26.5
02:45 1021 30.15 850 25.1 6.5 43.8 50 -3.1 26.5
02:50 1021 30.15 850 25.1 7.4 45.3 50 -2.3 27.8
02:55 1021 30.15 850 25.1 7.8 46 50 -2.1 28.3
03:00 1021 30.15 851 25.13 7.8 46 50 -1.9 28.7
03:05 1021 30.15 851 25.13 7.7 45.8 52 -1.5 29.3
03:10 1021 30.15 851 25.13 7.5 45.5 53 -1.3 29.6
03:15 1022 30.18 851 25.13 7.4 45.3 54 -1.2 29.9
03:20 1022 30.18 851 25.13 7.3 45.2 55 -1.1 30
03:25 1022 30.18 851 25.13 7.2 44.9 55 -1.1 30
03:30 1022 30.18 851 25.13 7 44.7 56 -1.1 30
03:35 1022 30.18 851 25.13 6.9 44.3 57 -1.2 29.9
03:40 1022 30.18 851 25.13 6.7 44.1 57 -1.1 30
03:45 1022 30.18 851 25.13 6.6 43.9 57 -1.1 29.9
03:50 1022 30.18 851 25.13 6.6 44 56 -1.4 29.5
03:55 1022 30.18 851 25.13 6.7 44 57 -1.2 29.8
04:00 1022 30.18 851 25.13 6.5 43.7 57 -1.5 29.3
04:05 1022 30.18 851 25.13 6.5 43.7 57 -1.5 29.3
04:10 1022 30.18 851 25.13 6.4 43.5 56 -1.7 28.9
04:15 1022 30.18 851 25.13 6.3 43.4 56 -1.8 28.7
04:20 1022 30.18 851 25.13 6.4 43.5 55 -1.9 28.6
04:25 1022 30.18 851 25.13 6.6 44 55 -1.9 28.7
04:30 1022 30.18 851 25.13 6.7 44 54 -2 28.4
04:35 1022 30.18 851 25.13 6.8 44.3 54 -1.9 28.5
04:40 1022 30.18 851 25.13 6.8 44.3 54 -1.9 28.6
04:45 1022 30.18 851 25.13 6.9 44.4 53 -2 28.4
04:50 1022 30.18 851 25.13 6.8 44.2 54 -1.9 28.6
04:55 1022 30.18 851 25.13 6.6 43.9 56 -1.5 29.3
05:00 1022 30.18 851 25.13 6.1 43 58 -1.5 29.4
05:05 1022 30.18 851 25.13 5.9 42.6 58 -1.6 29.1
05:10 1022 30.18 851 25.13 5.5 41.9 63 -0.9 30.4
05:15 1022 30.18 851 25.13 4.7 40.4 64 -1.5 29.2
05:20 1022 30.18 851 25.13 4.6 40.3 60 -2.4 27.6
05:25 1022 30.18 851 25.13 5.1 41.3 58 -2.4 27.7
05:30 1022 30.18 851 25.13 5.2 41.4 59 -2 28.3
05:35 1022 30.18 851 25.13 4.9 40.7 61 -2 28.5
05:40 1022 30.18 851 25.13 4.6 40.2 62 -2 28.4
05:45 1022 30.18 851 25.13 4.3 39.7 62 -2.3 27.9
05:50 1022 30.18 851 25.13 4.1 39.4 63 -2.3 27.8
05:55 1022 30.18 851 25.13 4 39.2 63 -2.3 27.9
06:00 1022 30.18 851 25.13 4.2 39.5 63 -2.2 28
06:05 1022 30.18 851 25.13 4.1 39.4 63 -2.4 27.8
06:10 1022 30.18 851 25.13 4.4 39.9 61 -2.4 27.6
06:15 1022 30.18 851 25.13 4.6 40.3 60 -2.5 27.6
06:20 1022 30.18 851 25.13 4.8 40.6 59 -2.5 27.5
06:25 1022 30.18 851 25.13 4.9 40.8 58 -2.7 27.2
06:30 1022 30.18 851 25.13 4.9 40.8 59 -2.4 27.6
06:35 1022 30.18 851 25.13 5.2 41.3 58 -2.5 27.5
06:40 1022 30.18 851 25.13 5.4 41.8 57 -2.5 27.6
06:45 1022 30.18 851 25.13 5.6 42.2 56 -2.5 27.6
06:50 1022 30.18 851 25.13 6 42.8 54 -2.5 27.4
06:55 1022 30.18 851 25.13 6.6 43.8 53 -2.4 27.7
07:00 1022 30.18 851 25.13 7.1 44.8 51 -2.3 27.9
07:05 1022 30.18 851 25.13 7.5 45.6 50 -2.1 28.2
07:10 1022 30.18 852 25.16 8.1 46.6 48 -2.2 28.1
07:15 1022 30.18 852 25.16 8.4 47 49 -1.8 28.8
07:20 1022 30.18 852 25.16 8.3 47 51 -1.2 29.8
07:25 1022 30.18 852 25.16 8.1 46.5 50 -1.6 29.2
07:30 1023 30.21 852 25.16 8.5 47.3 48 -1.9 28.6
07:35 1023 30.21 852 25.16 8.9 48 46 -2 28.4
07:40 1022 30.18 852 25.16 9.2 48.6 46 -1.7 28.9
07:45 1023 30.21 852 25.16 9.8 49.7 45 -1.7 29
07:50 1023 30.21 852 25.16 9.7 49.5 44 -1.9 28.7
07:55 1023 30.21 852 25.16 9.7 49.4 43 -2.1 28.2
08:00 1023 30.21 852 25.16 9.5 49 45 -1.7 28.9
08:05 1023 30.21 852 25.16 9.5 49.2 44 -2 28.3
08:10 1023 30.21 852 25.16 9.8 49.7 44 -1.7 28.9
08:15 1023 30.21 852 25.16 10.1 50.2 44 -1.5 29.2
08:20 1023 30.21 852 25.16 10.2 50.4 43 -1.6 29.1
08:25 1023 30.21 852 25.16 10.9 51.5 43 -1.2 29.8
08:30 1023 30.21 852 25.16 11.3 52.4 42 -1.1 30.1
08:35 1023 30.21 852 25.16 11.5 52.6 42 -0.8 30.6
08:40 1023 30.21 852 25.16 11.5 52.6 42 -1 30.1
08:45 1023 30.21 852 25.16 11.9 53.4 43 -0.3 31.5
08:50 1023 30.21 852 25.16 11.9 53.4 41 -0.9 30.3
08:55 1023 30.21 852 25.16 12.4 54.2 40 -0.8 30.5
09:00 1023 30.21 852 25.16 12.7 54.9 39 -0.8 30.5
09:05 1023 30.21 852 25.16 12.8 55 40 -0.5 31.1
09:10 1023 30.21 852 25.16 12.9 55.2 38 -0.9 30.4
09:15 1023 30.21 852 25.16 12.9 55.3 39 -0.6 30.9
09:20 1023 30.21 852 25.16 13.3 56 37 -1 30.2
09:25 1023 30.21 852 25.16 13.2 55.8 40 -0.1 31.9
09:30 1023 30.21 852 25.16 12 53.5 41 -0.7 30.7
09:35 1023 30.21 852 25.16 13.1 55.6 37 -1.3 29.7
09:40 1023 30.21 852 25.16 12.7 54.9 41 -0.3 31.5
09:45 1023 30.21 852 25.16 13.2 55.7 37 -1 30.2
09:50 1023 30.21 852 25.16 14.1 57.3 35 -0.9 30.3
09:55 1023 30.21 852 25.16 14.6 58.4 34 -1 30.2
10:00 1022 30.18 852 25.16 14.7 58.5 33 -1.5 29.3
10:05 1022 30.18 852 25.16 14.7 58.4 33 -1.3 29.6
10:10 1022 30.18 852 25.16 14.5 58.1 33 -1.6 29.2
10:15 1022 30.18 852 25.16 14.3 57.7 34 -1.4 29.4
10:20 1022 30.18 852 25.16 14.6 58.2 33 -1.5 29.3
10:25 1022 30.18 852 25.16 14.6 58.2 33 -1.5 29.3
10:30 1022 30.18 852 25.16 15 58.9 33 -1.3 29.7
10:35 1022 30.18 852 25.16 15.1 59.2 31 -1.6 29.1
10:40 1022 30.18 852 25.16 14.9 58.8 31 -1.9 28.6
10:45 1022 30.18 852 25.16 15.1 59.2 32 -1.3 29.7
10:50 1022 30.18 852 25.16 15.6 60 31 -1.2 29.8
10:55 1022 30.18 852 25.16 15.6 60.1 30 -1.8 28.7
11:00 1022 30.18 852 25.16 15.7 60.3 31 -1.3 29.7
11:05 1022 30.18 852 25.16 15.7 60.2 32 -1 30.2
11:10 1022 30.18 851 25.13 15.3 59.5 32 -1.4 29.5
11:15 1022 30.18 851 25.13 15.9 60.7 31 -1.2 29.8
11:20 1022 30.18 851 25.13 16.2 61.1 30 -1.3 29.7
11:25 1022 30.18 851 25.13 16.3 61.3 30 -1.2 29.9
11:30 1022 30.18 851 25.13 16 60.7 31 -1.2 29.9
11:35 1022 30.18 851 25.13 16.2 61.2 30 -1.2 29.9
11:40 1022 30.18 851 25.13 15.9 60.7 30 -1.5 29.3
11:45 1022 30.18 851 25.13 16.3 61.4 30 -1.2 29.9
11:50 1022 30.18 851 25.13 16.4 61.5 30 -0.9 30.4
11:55 1022 30.18 851 25.13 16.2 61.1 30 -1.2 29.9
12:00 1022 30.18 851 25.13 16.1 60.9 30 -1.2 29.8
12:05 1022 30.18 851 25.13 16 60.8 31 -1 30.2
12:10 1022 30.18 851 25.13 16.1 61 30 -1.6 29.2
12:15 1022 30.18 851 25.13 15.2 59.3 32 -1.5 29.3
12:20 1022 30.18 851 25.13 15.9 60.6 30 -1.7 29
12:25 1022 30.18 851 25.13 15.5 59.9 31 -1.3 29.7
12:30 1022 30.18 851 25.13 16.1 60.9 31 -1 30.3
12:35 1022 30.18 851 25.13 16.1 60.9 29 -1.8 28.7
12:40 1022 30.18 851 25.13 15.6 60.1 32 -1.1 30
12:45 1022 30.18 851 25.13 15.8 60.4 31 -1.4 29.4
12:50 1022 30.18 851 25.13 16.4 61.5 29 -1.4 29.4
12:55 1022 30.18 851 25.13 16.8 62.2 29 -1.2 29.9
13:00 1022 30.18 851 25.13 16.9 62.4 29 -1.2 29.9
13:05 1022 30.18 851 25.13 17.1 62.7 28 -1.4 29.6
13:10 1022 30.18 851 25.13 16.3 61.3 28 -2 28.4
13:15 1021 30.15 851 25.13 16.4 61.5 30 -1 30.2
13:20 1021 30.15 851 25.13 16.8 62.2 27 -2.1 28.3
13:25 1022 30.18 851 25.13 17.7 63.8 25 -2.5 27.5
13:30 1022 30.18 851 25.13 17.2 62.9 27 -2 28.4
13:35 1021 30.15 851 25.13 17.4 63.3 28 -1.4 29.5
13:40 1021 30.15 851 25.13 17 62.6 26 -2.3 27.8
13:45 1021 30.15 851 25.13 16.8 62.3 28 -1.8 28.7
13:50 1021 30.15 851 25.13 16.4 61.5 29 -1.7 29
13:55 1021 30.15 851 25.13 16.4 61.6 29 -1.6 29.2
14:00 1021 30.15 850 25.1 16.6 61.8 28 -1.8 28.7
14:05 1021 30.15 850 25.1 16.6 61.8 27 -2.2 28.1
14:10 1021 30.15 850 25.1 16.5 61.6 29 -1.7 29
14:15 1021 30.15 851 25.13 16.1 61 29 -1.9 28.5
14:20 1021 30.15 850 25.1 16.1 60.9 28 -2.2 28
14:25 1021 30.15 850 25.1 16.2 61.1 30 -1.2 29.8
14:30 1021 30.15 850 25.1 16 60.9 29 -1.9 28.6
14:35 1021 30.15 850 25.1 16 60.8 28 -2.2 28
14:40 1021 30.15 850 25.1 16.3 61.4 28 -2 28.5
14:45 1021 30.15 850 25.1 16.5 61.7 27 -2.6 27.2
14:50 1021 30.15 850 25.1 17.3 63.1 26 -2.5 27.5
14:55 1021 30.15 850 25.1 17.2 62.9 26 -2.6 27.4
15:00 1021 30.15 850 25.1 17 62.5 27 -2.3 27.9
15:05 1021 30.15 850 25.1 15.7 60.3 28 -2.7 27.1
15:10 1021 30.15 850 25.1 16.1 60.9 28 -2.5 27.5
15:15 1021 30.15 850 25.1 16.7 62.1 27 -2.3 27.9
15:20 1021 30.15 850 25.1 17.4 63.4 26 -2.2 28
15:25 1021 30.15 850 25.1 17.6 63.7 25 -2.4 27.6
15:30 1021 30.15 850 25.1 16.8 62.3 26 -2.9 26.7
15:35 1021 30.15 850 25.1 17 62.5 26 -2.6 27.3
15:40 1021 30.15 850 25.1 17.1 62.8 27 -2.1 28.1
15:45 1021 30.15 850 25.1 16.7 62.1 27 -2.3 27.9
15:50 1021 30.15 850 25.1 16.7 62 27 -2.5 27.4
15:55 1021 30.15 850 25.1 17 62.6 26 -2.4 27.7
16:00 1021 30.15 850 25.1 17.4 63.4 25 -2.5 27.5
16:05 1021 30.15 850 25.1 18 64.5 25 -2.4 27.7
16:10 1021 30.15 850 25.1 18.4 65.1 25 -1.9 28.6
16:15 1021 30.15 850 25.1 18.5 65.2 25 -2 28.5
16:20 1021 30.15 850 25.1 18.1 64.6 26 -1.4 29.4
16:25 1021 30.15 850 25.1 17.9 64.2 24 -2.7 27.1
16:30 1021 30.15 850 25.1 17.9 64.1 25 -2.2 28
16:35 1021 30.15 850 25.1 17.6 63.6 26 -2.2 28.1
16:40 1021 30.15 850 25.1 17.4 63.4 24 -3 26.6
16:45 1021 30.15 850 25.1 17.6 63.7 24 -2.8 26.9
16:50 1021 30.15 850 25.1 17.9 64.2 24 -2.7 27.1
16:55 1021 30.15 850 25.1 18.1 64.5 24 -2.6 27.4
17:00 1021 30.15 850 25.1 17.9 64.2 25 -2.3 27.9
17:05 1021 30.15 850 25.1 17.5 63.5 26 -2.3 27.8
17:10 1021 30.15 850 25.1 17.4 63.3 27 -1.9 28.6
17:15 1021 30.15 850 25.1 17.3 63.1 27 -1.7 28.9
17:20 1021 30.15 850 25.1 17.1 62.7 27 -2.2 28.1
17:25 1021 30.15 850 25.1 16.9 62.4 28 -1.9 28.6
17:30 1021 30.15 850 25.1 16.8 62.2 27 -2 28.4
17:35 1021 30.15 850 25.1 16.7 62 28 -2 28.5
17:40 1021 30.15 850 25.1 16.5 61.7 28 -2.1 28.3
17:45 1021 30.15 850 25.1 16.5 61.7 29 -1.5 29.4
17:50 1021 30.15 850 25.1 16.4 61.5 29 -1.6 29.1
17:55 1021 30.15 850 25.1 16.2 61.2 30 -1.5 29.3
18:00 1021 30.15 850 25.1 16.1 60.9 30 -1.5 29.2
18:05 1021 30.15 850 25.1 15.9 60.5 30 -1.5 29.2
18:10 1021 30.15 850 25.1 15.7 60.2 31 -1.4 29.6
18:15 1021 30.15 850 25.1 15.5 60 32 -0.8 30.5
18:20 1021 30.15 851 25.13 15.3 59.6 32 -1 30.1
18:25 1021 30.15 851 25.13 15.1 59.2 32 -1.2 29.8
18:30 1021 30.15 851 25.13 14.9 58.8 33 -1.3 29.7
18:35 1021 30.15 851 25.13 14.6 58.4 33 -1.3 29.7
18:40 1022 30.18 851 25.13 14.6 58.2 34 -0.8 30.5
18:45 1022 30.18 851 25.13 14.4 58 33 -1.6 29.2
18:50 1022 30.18 851 25.13 14.3 57.7 33 -1.7 29
18:55 1022 30.18 851 25.13 14.2 57.6 33 -1.7 29
19:00 1022 30.18 851 25.13 14 57.3 33 -1.8 28.8
19:05 1022 30.18 851 25.13 13.9 57 34 -1.8 28.8
19:10 1022 30.18 851 25.13 13.8 56.8 34 -1.8 28.7
19:15 1022 30.18 851 25.13 13.7 56.7 34 -1.9 28.5
19:20 1022 30.18 851 25.13 13.5 56.4 34 -1.8 28.8
19:25 1022 30.18 852 25.16 13.4 56.1 34 -2 28.4
19:30 1022 30.18 852 25.16 13.3 56 34 -2.3 27.8
19:35 1022 30.18 852 25.16 13.3 55.9 34 -2.3 27.9
19:40 1023 30.21 852 25.16 13.2 55.8 34 -2.3 27.8
19:45 1023 30.21 852 25.16 13.2 55.7 34 -2.4 27.8
19:50 1023 30.21 852 25.16 13.1 55.6 33 -2.5 27.4
19:55 1023 30.21 852 25.16 13.1 55.6 33 -2.8 27
20:00 1023 30.21 852 25.16 13.2 55.7 33 -2.7 27.2
20:05 1023 30.21 852 25.16 13.2 55.7 33 -2.5 27.4
20:10 1023 30.21 852 25.16 13.1 55.5 35 -2.1 28.2
20:15 1023 30.21 852 25.16 13.1 55.5 36 -1.7 29
20:20 1023 30.21 852 25.16 12.6 54.7 38 -1.4 29.5
20:25 1023 30.21 852 25.16 12.4 54.2 41 -0.5 31.2
20:30 1023 30.21 852 25.16 12.7 54.8 40 -0.4 31.3
20:35 1023 30.21 853 25.19 12.8 55 39 -0.8 30.6
20:40 1023 30.21 852 25.16 12.8 55 39 -0.8 30.5
20:45 1023 30.21 852 25.16 12.8 55 38 -1.1 30
20:50 1023 30.21 852 25.16 12.7 54.8 40 -0.6 31
20:55 1023 30.21 852 25.16 12.6 54.7 39 -0.7 30.7
21:00 1023 30.21 852 25.16 12.5 54.6 40 -0.5 31
21:05 1023 30.21 852 25.16 12.5 54.5 39 -1.1 30
21:10 1023 30.21 852 25.16 12.4 54.3 38 -1.5 29.4
21:15 1023 30.21 852 25.16 12.4 54.2 38 -1.4 29.5
21:20 1023 30.21 852 25.16 12.3 54.1 39 -1.2 29.8
21:25 1023 30.21 852 25.16 12.1 53.9 40 -1 30.2
21:30 1023 30.21 852 25.16 12 53.7 42 -0.5 31.2
21:35 1023 30.21 852 25.16 11.9 53.4 45 0.5 32.8
21:40 1023 30.21 852 25.16 11.7 53.1 45 0.3 32.5
21:45 1023 30.21 852 25.16 11.7 53 44 0 32.1
21:50 1023 30.21 852 25.16 11.7 53.1 45 0.3 32.5
21:55 1023 30.21 852 25.16 11.6 52.8 45 0.2 32.3
22:00 1023 30.21 852 25.16 11.5 52.7 46 0.2 32.4
22:05 1023 30.21 852 25.16 11.3 52.3 47 0.4 32.6
22:10 1023 30.21 852 25.16 11.1 51.9 47 0.2 32.3
22:15 1023 30.21 852 25.16 10.9 51.5 48 0.4 32.8
22:20 1023 30.21 852 25.16 10.7 51.3 48 0.1 32.3
22:25 1023 30.21 852 25.16 10.7 51.3 48 0.3 32.6
22:30 1023 30.21 852 25.16 10.7 51.2 48 0.1 32.2
22:35 1023 30.21 852 25.16 10.7 51.2 47 -0.2 31.6
22:40 1023 30.21 852 25.16 10.7 51.2 49 0.3 32.6
22:45 1023 30.21 852 25.16 10.6 51 48 0 32.1
22:50 1023 30.21 852 25.16 10.8 51.4 44 -0.9 30.4
22:55 1023 30.21 852 25.16 10.9 51.7 47 0 32.1
23:00 1023 30.21 852 25.16 10.7 51.2 48 0.1 32.1
23:05 1023 30.21 852 25.16 10.6 51 48 0.2 32.3
23:10 1023 30.21 852 25.16 10.4 50.6 54 1.6 34.9
23:15 1023 30.21 852 25.16 9.8 49.6 56 1.4 34.6
23:20 1023 30.21 852 25.16 9.3 48.7 56 1 33.7
23:25 1023 30.21 852 25.16 9.3 48.7 53 0.4 32.7
23:30 1023 30.21 852 25.16 9.5 49.1 52 0.2 32.3
23:35 1023 30.21 852 25.16 9.6 49.3 52 0.4 32.7
23:40 1023 30.21 852 25.16 9.5 49 56 1.2 34.1
23:45 1023 30.21 852 25.16 9.2 48.6 54 0.6 33
23:50 1023 30.21 852 25.16 9.2 48.5 54 0.5 32.9
23:55 1023 30.21 852 25.16 9.1 48.3 55 0.5 32.9
24:00 1023 30.21 853 25.19 9 48.1 54 0.3 32.6